• Join FlightAware (Why Join?)
  • Login
  • US Flag 
04:02AM EST


 

Airport Tracker/Info


-or-


 

Live Flight TrackerFlight Track Log ✈ N317FL ✈ 06-May-2013 ✈ KMKC - KROG

Flight Track Log - Related Links

Times and Time Zones

All times are in EDT time to prevent confusion due to time zone crossing. See the N317FL flight status page for this flight to view local times or setup timezone preferences in your user account.

Time Position Orientation Groundspeed Altitude Reporting Facility
EDT Latitude Longitude Course Direction KTS MPH feet Rate Location/Type
06:51PM 39.1500 -94.5770 36° Northeast 182 209 3,500  Level FlightAware
06:51PM 39.1670 -94.5600 38° Northeast 213 245 4,700 3,600 Climbing FlightAware
06:52PM 39.1770 -94.5470 45° Northeast 218 251 5,900 5,400 Climbing FlightAware
06:52PM 39.1790 -94.5380 74° East 222 255 6,500 4,200 Climbing FlightAware
06:52PM 39.1630 -94.5130 130° Southeast 257 296 8,000 4,320 Climbing FlightAware
06:52PM 39.1430 -94.5080 169° South 262 302 9,400 4,680 Climbing FlightAware
06:53PM 39.0930 -94.5060 178° South 278 320 12,300 4,200 Climbing FlightAware
06:54PM 39.0400 -94.5000 175° South 290 334 15,000 4,020 Climbing FlightAware
06:55PM 38.9810 -94.4900 172° South 299 344 18,000 3,720 Climbing FlightAware
06:55PM 38.9240 -94.4820 174° South 316 364 20,300 2,220 Climbing FlightAware
06:56PM 38.8610 -94.4720 173° South 353 406 21,000 480 Climbing FlightAware
06:57PM 38.7850 -94.4610 174° South 361 415 21,000  Level FlightAware
06:57PM 38.7190 -94.4510 173° South 354 407 21,000  Level FlightAware
06:58PM 38.6470 -94.4400 173° South 349 402 21,000  Level FlightAware
06:59PM 38.5840 -94.4300 173° South 346 398 21,000  Level FlightAware
06:59PM 38.5130 -94.4190 173° South 344 396 21,000  Level FlightAware
07:00PM 38.4410 -94.4090 174° South 343 395 21,000  Level FlightAware
07:01PM 38.3840 -94.4000 173° South 343 395 21,000  Level FlightAware
07:02PM 38.3140 -94.3900 174° South 342 394 21,000  Level FlightAware
07:02PM 38.2570 -94.3810 173° South 338 389 21,000  Level FlightAware
07:03PM 38.1870 -94.3700 173° South 333 383 21,000  Level FlightAware
07:04PM 38.1280 -94.3620 174° South 328 377 21,000  Level FlightAware
07:04PM 38.0770 -94.3540 173° South 328 377 21,000  Level FlightAware
07:05PM 38.0260 -94.3460 173° South 328 377 21,000  Level FlightAware
07:06PM 37.9750 -94.3380 173° South 328 377 21,000  Level FlightAware
07:06PM 37.9240 -94.3300 173° South 328 377 21,000  Level FlightAware
07:07PM 37.8600 -94.3200 173° South 328 377 21,000  Level FlightAware
07:08PM 37.7731 -94.3083 173° South 317 365 21,000  Level Kansas City Center
07:09PM 37.6842 -94.2958 174° South 319 367 21,000  Level Kansas City Center
07:11PM 37.5320 -94.2634 173° South  Level FlightAware Approximate
07:12PM 37.4261 -94.2600 173° South 318 366 21,000  Level Kansas City Center
07:13PM 37.3189 -94.2431 173° South 320 368 20,500 -780 Descending Kansas City Center
07:14PM 37.2261 -94.2308 174° South 328 377 19,500 -960 Descending Kansas City Center
07:15PM 37.1272 -94.2164 173° South 341 392 18,600 -900 Descending Kansas City Center
07:16PM 37.0289 -94.2017 173° South 351 404 17,700 -960 Descending Kansas City Center
07:17PM 36.9303 -94.1869 173° South 354 407 16,700 -1,140 Descending Kansas City Center
07:19PM 36.7544 -94.1783 178° South 308 354 14,200 -1,440 Descending Kansas City Center
07:20PM 36.6503 -94.1850 183° South 308 354 12,400 -1,860 Descending Kansas City Center
07:21PM 36.5672 -94.1894 182° South 302 348 10,400 -1,800 Descending Kansas City Center
07:23PM 36.4669 -94.1167 180° South  Level FlightAware Approximate
07:24PM 36.3547 -94.1983 180° South 253 291 5,000  Level Kansas City Center
07:25PM 36.3294 -94.1608 130° Southeast 189 217 3,600 -1,260 Descending Kansas City Center
07:26PM 36.3358 -94.1147 80° East 152 175 2,500 -1,140 Descending Kansas City Center
07:28PM 36.3667 -94.1000 180° South  Level FlightAware Approximate